createdAt,value
2019-03-05T00:01:51.656Z,4.90
2019-03-05T00:04:20.780Z,4.90
2019-03-05T00:06:50.166Z,4.90
2019-03-05T00:09:22.049Z,4.80
2019-03-05T00:11:51.421Z,4.90
2019-03-05T00:14:23.438Z,4.80
2019-03-05T00:16:52.562Z,4.80
2019-03-05T00:19:21.718Z,4.80
2019-03-05T00:21:50.836Z,4.80
2019-03-05T00:25:12.311Z,4.70
2019-03-05T00:28:17.502Z,4.70
2019-03-05T00:30:55.720Z,4.70
2019-03-05T00:33:55.328Z,4.60
2019-03-05T00:37:06.972Z,4.50
2019-03-05T00:40:10.494Z,4.50
2019-03-05T00:43:00.064Z,4.50
2019-03-05T00:45:57.440Z,4.40
2019-03-05T00:48:42.024Z,4.40
2019-03-05T00:51:32.288Z,4.40
2019-03-05T00:54:41.368Z,4.30
2019-03-05T00:57:18.720Z,4.30
2019-03-05T01:00:04.925Z,4.30
2019-03-05T01:02:56.272Z,4.30
2019-03-05T01:05:48.061Z,4.30
2019-03-05T01:08:19.613Z,4.30
2019-03-05T01:10:48.045Z,4.30
2019-03-05T01:13:17.184Z,4.20
2019-03-05T01:15:46.536Z,4.30
2019-03-05T01:18:15.663Z,4.20
2019-03-05T01:20:44.839Z,4.30
2019-03-05T01:23:14.015Z,4.30
2019-03-05T01:25:43.743Z,4.40
2019-03-05T01:28:12.936Z,4.30
2019-03-05T01:31:17.649Z,4.40
2019-03-05T01:34:05.819Z,4.40
2019-03-05T01:36:37.913Z,4.40
2019-03-05T01:39:18.392Z,4.40
2019-03-05T01:41:47.527Z,4.40
2019-03-05T01:44:16.673Z,4.40
2019-03-05T01:46:45.809Z,4.40
2019-03-05T01:49:14.914Z,4.40
2019-03-05T01:51:44.063Z,4.50
2019-03-05T01:54:13.174Z,4.50
2019-03-05T01:56:42.313Z,4.50
2019-03-05T01:59:11.461Z,4.50
2019-03-05T02:01:40.649Z,4.50
2019-03-05T02:04:09.776Z,4.50
2019-03-05T02:06:38.883Z,4.50
2019-03-05T02:09:08.864Z,4.50
2019-03-05T02:11:38.001Z,4.50
2019-03-05T02:14:07.287Z,4.50
2019-03-05T02:16:36.431Z,4.50
2019-03-05T02:19:34.186Z,4.50
2019-03-05T02:22:03.448Z,4.50
2019-03-05T02:25:29.162Z,4.50
2019-03-05T02:28:36.554Z,4.40
2019-03-05T02:31:58.032Z,4.40
2019-03-05T02:34:44.675Z,4.40
2019-03-05T02:37:57.576Z,4.50
2019-03-05T02:41:16.658Z,4.50
2019-03-05T02:44:09.208Z,4.50
2019-03-05T02:47:09.651Z,4.60
2019-03-05T02:50:13.290Z,4.60
2019-03-05T02:53:18.798Z,4.70
2019-03-05T02:56:15.949Z,4.70
2019-03-05T02:58:43.492Z,4.70
2019-03-05T03:01:31.636Z,4.80
2019-03-05T03:04:07.046Z,4.80
2019-03-05T03:06:36.806Z,4.80
2019-03-05T03:09:47.069Z,4.90
2019-03-05T03:12:16.194Z,4.90
2019-03-05T03:14:45.404Z,5.00
2019-03-05T03:17:14.586Z,5.00
2019-03-05T03:19:43.705Z,5.00
2019-03-05T03:22:12.940Z,5.00
2019-03-05T03:24:42.130Z,5.00
2019-03-05T03:27:11.267Z,5.00
2019-03-05T03:29:40.423Z,5.00
2019-03-05T03:32:09.541Z,5.10
2019-03-05T03:34:38.652Z,5.20
2019-03-05T03:37:07.751Z,5.20
2019-03-05T03:39:36.896Z,5.20
2019-03-05T03:42:06.113Z,5.20
2019-03-05T03:44:35.237Z,5.20
2019-03-05T03:47:04.386Z,5.20
2019-03-05T03:49:33.512Z,5.10
2019-03-05T03:52:02.720Z,5.10
2019-03-05T03:54:31.853Z,5.20
2019-03-05T03:57:01.017Z,5.10
2019-03-05T03:59:30.196Z,5.10
2019-03-05T04:01:59.312Z,5.20
2019-03-05T04:04:28.464Z,5.20
2019-03-05T04:06:57.588Z,5.20
2019-03-05T04:09:26.729Z,5.30
2019-03-05T04:11:55.851Z,5.30
2019-03-05T04:14:24.959Z,5.30
2019-03-05T04:16:54.105Z,5.30
2019-03-05T04:19:29.374Z,5.30
2019-03-05T04:21:58.513Z,5.30
2019-03-05T04:24:27.620Z,5.30
2019-03-05T04:26:56.726Z,5.30
2019-03-05T04:29:25.877Z,5.30
2019-03-05T04:31:55.007Z,5.30
2019-03-05T04:34:24.212Z,5.30
2019-03-05T04:36:53.351Z,5.30
2019-03-05T04:39:22.460Z,5.30
2019-03-05T04:41:51.590Z,5.30
2019-03-05T04:44:54.797Z,5.30
2019-03-05T04:47:24.017Z,5.20
2019-03-05T04:50:04.284Z,5.30
2019-03-05T04:52:35.907Z,5.30
2019-03-05T04:55:06.310Z,5.30
2019-03-05T04:57:35.531Z,5.30
2019-03-05T05:00:08.445Z,5.30
2019-03-05T05:02:37.561Z,5.20
2019-03-05T05:05:06.744Z,5.30
2019-03-05T05:07:35.879Z,5.20
2019-03-05T05:10:05.928Z,5.20
2019-03-05T05:12:35.111Z,5.20
2019-03-05T05:15:05.419Z,5.20
2019-03-05T05:17:34.543Z,5.20
2019-03-05T05:20:03.698Z,5.30
2019-03-05T05:22:32.923Z,5.30
2019-03-05T05:25:02.061Z,5.30
2019-03-05T05:27:31.154Z,5.30
2019-03-05T05:30:00.476Z,5.30
2019-03-05T05:32:29.767Z,5.30
2019-03-05T05:34:58.886Z,5.30
2019-03-05T05:37:28.149Z,5.30
2019-03-05T05:40:34.595Z,5.30
2019-03-05T05:43:04.253Z,5.30
2019-03-05T05:45:39.843Z,5.40
2019-03-05T05:48:08.987Z,5.40
2019-03-05T05:50:38.117Z,5.40
2019-03-05T05:53:07.231Z,5.30
2019-03-05T05:55:36.383Z,5.30
2019-03-05T05:58:05.459Z,5.30
2019-03-05T06:00:36.258Z,5.30
2019-03-05T06:03:05.461Z,5.30
2019-03-05T06:05:34.707Z,5.30
2019-03-05T06:08:03.857Z,5.30
2019-03-05T06:10:33.044Z,5.30
2019-03-05T06:13:02.148Z,5.30
2019-03-05T06:15:31.263Z,5.30
2019-03-05T06:18:00.409Z,5.30
2019-03-05T06:20:29.513Z,5.30
2019-03-05T06:22:58.767Z,5.30
2019-03-05T06:25:27.906Z,5.30
2019-03-05T06:27:57.018Z,5.30
2019-03-05T06:30:26.281Z,5.40
2019-03-05T06:32:55.391Z,5.40
2019-03-05T06:35:24.545Z,5.40
2019-03-05T06:37:53.699Z,5.30
2019-03-05T06:40:22.806Z,5.40
2019-03-05T06:42:52.009Z,5.40
2019-03-05T06:45:21.140Z,5.40
2019-03-05T06:47:50.274Z,5.40
2019-03-05T06:50:19.562Z,5.40
2019-03-05T06:52:48.669Z,5.50
2019-03-05T06:55:17.874Z,5.50
2019-03-05T06:57:46.973Z,5.50
2019-03-05T07:00:21.125Z,5.50
2019-03-05T07:02:50.214Z,5.60
2019-03-05T07:05:55.016Z,5.60
2019-03-05T07:08:26.217Z,5.50
2019-03-05T07:11:24.068Z,5.60
2019-03-05T07:13:53.335Z,5.60
2019-03-05T07:16:47.152Z,5.60
2019-03-05T07:19:57.547Z,5.70
2019-03-05T07:22:52.708Z,5.70
2019-03-05T07:25:21.816Z,5.80
2019-03-05T07:27:54.772Z,5.80
2019-03-05T07:30:27.988Z,5.90
2019-03-05T07:32:58.766Z,5.90
2019-03-05T07:35:29.412Z,5.90
2019-03-05T07:37:58.521Z,6.00
2019-03-05T07:40:27.652Z,6.00
2019-03-05T07:42:56.819Z,6.00
2019-03-05T07:45:26.103Z,6.00
2019-03-05T07:47:55.270Z,6.00
2019-03-05T07:50:24.470Z,6.00
2019-03-05T07:52:53.719Z,6.10
2019-03-05T07:55:22.890Z,6.10
2019-03-05T07:57:52.012Z,6.00
2019-03-05T08:00:22.158Z,6.10
2019-03-05T08:02:51.314Z,6.00
2019-03-05T08:05:20.728Z,6.00
2019-03-05T08:07:49.992Z,6.00
2019-03-05T08:10:22.088Z,6.00
2019-03-05T08:13:44.633Z,6.00
2019-03-05T08:16:26.672Z,6.00
2019-03-05T08:18:55.843Z,5.90
2019-03-05T08:21:24.982Z,5.80
2019-03-05T08:23:54.175Z,5.80
2019-03-05T08:26:23.334Z,5.70
2019-03-05T08:28:52.460Z,5.60
2019-03-05T08:31:21.606Z,5.50
2019-03-05T08:33:50.754Z,5.50
2019-03-05T08:36:19.896Z,5.50
2019-03-05T08:38:49.046Z,5.40
2019-03-05T08:41:18.191Z,5.20
2019-03-05T08:43:47.307Z,5.20
2019-03-05T08:46:16.517Z,5.20
2019-03-05T08:48:45.670Z,5.10
2019-03-05T08:51:14.829Z,5.00
2019-03-05T08:53:49.506Z,5.00
2019-03-05T08:56:14.834Z,5.00
2019-03-05T08:58:43.984Z,5.00
2019-03-05T09:01:13.127Z,5.00
2019-03-05T09:03:42.295Z,5.00
2019-03-05T09:06:11.399Z,4.90
2019-03-05T09:08:40.550Z,4.90
2019-03-05T09:11:09.697Z,5.00
2019-03-05T09:13:38.818Z,5.00
2019-03-05T09:16:08.166Z,5.00
2019-03-05T09:18:37.333Z,5.00
2019-03-05T09:21:08.072Z,5.00
2019-03-05T09:23:37.247Z,5.10
2019-03-05T09:26:06.363Z,5.10
2019-03-05T09:28:35.460Z,5.10
2019-03-05T09:31:04.628Z,5.10
2019-03-05T09:33:33.795Z,5.10
2019-03-05T09:36:02.974Z,5.10
2019-03-05T09:38:32.078Z,5.20
2019-03-05T09:41:01.222Z,5.20
2019-03-05T09:43:30.359Z,5.30
2019-03-05T09:45:59.555Z,5.30
2019-03-05T09:48:29.231Z,5.40
2019-03-05T09:50:58.385Z,5.40
2019-03-05T09:53:27.501Z,5.50
2019-03-05T09:55:57.126Z,5.50
2019-03-05T09:58:26.263Z,5.50
2019-03-05T10:00:55.382Z,5.60
2019-03-05T10:03:24.545Z,5.70
2019-03-05T10:05:53.679Z,5.70
2019-03-05T10:08:31.910Z,5.70
2019-03-05T10:10:56.644Z,5.70
2019-03-05T10:13:25.885Z,5.80
2019-03-05T10:15:55.000Z,5.80
2019-03-05T10:18:24.154Z,5.80
2019-03-05T10:20:53.287Z,5.80
2019-03-05T10:23:22.487Z,5.80
2019-03-05T10:25:51.620Z,5.70
2019-03-05T10:28:20.782Z,5.70
2019-03-05T10:30:50.179Z,5.70
2019-03-05T10:33:19.746Z,5.50
2019-03-05T10:35:49.324Z,5.50
2019-03-05T10:38:18.477Z,5.50
2019-03-05T10:40:47.649Z,5.50
2019-03-05T10:43:17.211Z,5.50
2019-03-05T10:45:46.831Z,5.50
2019-03-05T10:48:17.041Z,5.50
2019-03-05T10:50:47.337Z,5.40
2019-03-05T10:53:16.577Z,5.50
2019-03-05T10:55:45.725Z,5.50
2019-03-05T10:58:16.087Z,5.50
2019-03-05T11:00:45.999Z,5.40
2019-03-05T11:03:15.587Z,5.50
2019-03-05T11:05:45.189Z,5.50
2019-03-05T11:08:18.566Z,5.40
2019-03-05T11:10:47.853Z,5.40
2019-03-05T11:13:17.155Z,5.50
2019-03-05T11:15:48.142Z,5.50
2019-03-05T11:18:28.504Z,5.60
2019-03-05T11:20:48.342Z,5.60
2019-03-05T11:23:17.542Z,5.60
2019-03-05T11:25:46.765Z,5.60
2019-03-05T11:28:15.977Z,5.60
2019-03-05T11:30:45.474Z,5.70
2019-03-05T11:33:14.723Z,5.80
2019-03-05T11:35:43.905Z,5.80
2019-03-05T11:38:13.046Z,5.90
2019-03-05T11:40:42.390Z,5.90
2019-03-05T11:43:13.403Z,5.90
2019-03-05T11:45:44.051Z,5.90
2019-03-05T11:48:14.971Z,5.90
2019-03-05T11:50:44.302Z,5.90
2019-03-05T11:53:13.411Z,5.80
2019-03-05T11:55:42.633Z,5.80
2019-03-05T11:58:11.816Z,5.90
2019-03-05T12:01:03.308Z,5.80
2019-03-05T12:03:32.518Z,5.80
2019-03-05T12:06:01.680Z,5.80
2019-03-05T12:08:30.804Z,5.70
2019-03-05T12:10:59.990Z,5.70
2019-03-05T12:13:29.082Z,5.70
2019-03-05T12:15:59.237Z,5.60
2019-03-05T12:18:28.392Z,5.50
2019-03-05T12:20:57.524Z,5.50
2019-03-05T12:23:26.686Z,5.40
2019-03-05T12:25:55.789Z,5.40
2019-03-05T12:28:25.052Z,5.30
2019-03-05T12:30:54.182Z,5.30
2019-03-05T12:33:23.295Z,5.40
2019-03-05T12:35:52.430Z,5.30
2019-03-05T12:38:21.496Z,5.30
2019-03-05T12:40:50.668Z,5.20
2019-03-05T12:43:19.805Z,5.30
2019-03-05T12:45:48.904Z,5.40
2019-03-05T12:48:18.026Z,5.30
2019-03-05T12:50:47.123Z,5.40
2019-03-05T12:53:16.674Z,5.40
2019-03-05T12:55:45.793Z,5.50
2019-03-05T12:58:14.937Z,5.50
2019-03-05T13:00:44.055Z,5.60
2019-03-05T13:03:13.191Z,5.60
2019-03-05T13:05:42.343Z,5.50
2019-03-05T13:08:11.445Z,5.60
2019-03-05T13:10:40.572Z,5.60
2019-03-05T13:13:10.321Z,5.70
2019-03-05T13:15:41.188Z,5.70
2019-03-05T13:18:10.306Z,5.70
2019-03-05T13:20:39.491Z,5.80
2019-03-05T13:23:10.481Z,5.90
2019-03-05T13:25:39.489Z,5.90
2019-03-05T13:28:08.622Z,5.90
2019-03-05T13:30:40.186Z,5.90
2019-03-05T13:33:08.711Z,6.00
2019-03-05T13:35:37.884Z,6.00
2019-03-05T13:38:08.927Z,6.00
2019-03-05T13:40:39.953Z,6.10
2019-03-05T13:43:09.129Z,6.10
2019-03-05T13:45:38.230Z,6.10
2019-03-05T13:48:29.893Z,6.10
2019-03-05T13:51:44.616Z,6.10
2019-03-05T13:54:50.705Z,6.10
2019-03-05T13:58:08.300Z,6.10
2019-03-05T14:00:37.428Z,6.10
2019-03-05T14:03:22.566Z,6.00
2019-03-05T14:06:29.785Z,6.10
2019-03-05T14:09:16.552Z,5.90
2019-03-05T14:11:47.347Z,5.90
2019-03-05T14:14:24.376Z,5.90
2019-03-05T14:16:58.382Z,5.90
2019-03-05T14:19:27.482Z,5.90
2019-03-05T14:21:56.729Z,5.90
2019-03-05T14:24:25.864Z,5.90
2019-03-05T14:26:55.072Z,6.00
2019-03-05T14:29:24.182Z,6.00
2019-03-05T14:31:53.445Z,5.90
2019-03-05T14:34:22.918Z,5.90
2019-03-05T14:36:52.046Z,5.90
2019-03-05T14:39:27.811Z,5.90
2019-03-05T14:41:56.995Z,6.00
2019-03-05T14:44:26.206Z,6.00
2019-03-05T14:46:57.024Z,5.90
2019-03-05T14:49:26.794Z,6.00
2019-03-05T14:51:55.927Z,6.00
2019-03-05T14:54:25.126Z,6.10
2019-03-05T14:56:54.322Z,6.10
2019-03-05T14:59:23.465Z,6.10
2019-03-05T15:01:52.650Z,6.10
2019-03-05T15:04:21.821Z,6.20
2019-03-05T15:06:51.363Z,6.10
2019-03-05T15:09:20.526Z,6.10
2019-03-05T15:11:49.694Z,6.10
2019-03-05T15:14:18.891Z,6.00
2019-03-05T15:16:48.120Z,6.00
2019-03-05T15:19:21.211Z,6.00
2019-03-05T15:21:48.151Z,6.00
2019-03-05T15:24:17.314Z,6.00
2019-03-05T15:26:46.493Z,6.00
2019-03-05T15:29:15.762Z,6.00
2019-03-05T15:31:44.873Z,6.00
2019-03-05T15:34:13.989Z,6.00
2019-03-05T15:36:43.423Z,6.00
2019-03-05T15:39:12.696Z,6.00
2019-03-05T15:41:45.747Z,6.00
2019-03-05T15:44:12.797Z,5.90
2019-03-05T15:46:42.069Z,6.00
2019-03-05T15:49:11.229Z,5.90
2019-03-05T15:51:40.490Z,6.00
2019-03-05T15:54:09.612Z,6.00
2019-03-05T15:56:38.752Z,6.00
2019-03-05T15:59:07.870Z,6.00
2019-03-05T16:01:37.095Z,6.00
2019-03-05T16:04:06.283Z,6.10
2019-03-05T16:06:35.402Z,6.10
2019-03-05T16:09:11.778Z,6.00
2019-03-05T16:11:40.883Z,6.00
2019-03-05T16:14:09.994Z,6.10
2019-03-05T16:16:39.174Z,6.10
2019-03-05T16:19:08.316Z,6.10
2019-03-05T16:21:41.274Z,6.10
2019-03-05T16:24:08.340Z,6.00
2019-03-05T16:26:37.555Z,6.00
2019-03-05T16:29:06.995Z,6.10
2019-03-05T16:31:49.758Z,6.00
2019-03-05T16:34:37.328Z,6.10
2019-03-05T16:37:24.528Z,6.00
2019-03-05T16:40:16.806Z,6.00
2019-03-05T16:42:52.844Z,6.00
2019-03-05T16:45:28.785Z,6.00
2019-03-05T16:48:15.816Z,6.00
2019-03-05T16:50:55.975Z,6.00
2019-03-05T16:53:47.938Z,6.00
2019-03-05T16:56:33.981Z,5.90
2019-03-05T16:59:21.043Z,5.90
2019-03-05T17:02:00.048Z,5.90
2019-03-05T17:04:48.251Z,5.90
2019-03-05T17:07:38.972Z,5.90
2019-03-05T17:10:40.472Z,5.80
2019-03-05T17:13:09.599Z,5.80
2019-03-05T17:15:38.745Z,5.80
2019-03-05T17:18:08.050Z,5.80
2019-03-05T17:20:37.274Z,5.70
2019-03-05T17:23:06.617Z,5.70
2019-03-05T17:25:35.912Z,5.70
2019-03-05T17:28:05.304Z,5.70
2019-03-05T17:30:34.593Z,5.70
2019-03-05T17:33:03.845Z,5.70
2019-03-05T17:35:33.265Z,5.70
2019-03-05T17:38:02.600Z,5.70
2019-03-05T17:40:31.746Z,5.70
2019-03-05T17:43:00.892Z,5.70
2019-03-05T17:45:30.153Z,5.70
2019-03-05T17:47:59.367Z,5.70
2019-03-05T17:50:28.598Z,5.70
2019-03-05T17:52:57.790Z,5.70
2019-03-05T17:55:27.363Z,5.70
2019-03-05T17:57:56.632Z,5.70
2019-03-05T18:00:29.316Z,5.70
2019-03-05T18:02:58.456Z,5.70
2019-03-05T18:05:27.754Z,5.70
2019-03-05T18:07:56.907Z,5.70
2019-03-05T18:10:26.139Z,5.70
2019-03-05T18:12:55.316Z,5.70
2019-03-05T18:15:24.548Z,5.70
2019-03-05T18:17:53.768Z,5.70
2019-03-05T18:20:23.353Z,5.70
2019-03-05T18:22:52.506Z,5.70
2019-03-05T18:25:21.766Z,5.80
2019-03-05T18:27:51.015Z,5.80
2019-03-05T18:30:20.373Z,5.80
2019-03-05T18:32:49.517Z,5.70
2019-03-05T18:35:18.970Z,5.70
2019-03-05T18:37:48.085Z,5.70
2019-03-05T18:40:17.270Z,5.80
2019-03-05T18:42:46.495Z,5.80
2019-03-05T18:45:20.545Z,5.80
2019-03-05T18:47:49.771Z,5.80
2019-03-05T18:50:19.749Z,5.80
2019-03-05T18:52:50.015Z,5.80
2019-03-05T18:55:19.895Z,5.80
2019-03-05T18:57:49.093Z,5.80
2019-03-05T19:00:20.555Z,5.70
2019-03-05T19:02:50.269Z,5.70
2019-03-05T19:05:19.415Z,5.70
2019-03-05T19:07:51.829Z,5.80
2019-03-05T19:10:23.203Z,5.70
2019-03-05T19:12:54.337Z,5.80
2019-03-05T19:15:23.797Z,5.80
2019-03-05T19:17:55.671Z,5.80
2019-03-05T19:20:24.984Z,5.70
2019-03-05T19:22:54.156Z,5.70
2019-03-05T19:25:25.360Z,5.70
2019-03-05T19:27:54.659Z,5.70
2019-03-05T19:30:29.447Z,5.70
2019-03-05T19:32:58.669Z,5.70
2019-03-05T19:35:28.010Z,5.70
2019-03-05T19:37:57.306Z,5.70
2019-03-05T19:40:31.881Z,5.70
2019-03-05T19:43:01.161Z,5.70
2019-03-05T19:45:30.386Z,5.70
2019-03-05T19:47:59.652Z,5.80
2019-03-05T19:50:28.769Z,5.70
2019-03-05T19:53:01.335Z,5.80
2019-03-05T19:55:30.871Z,5.80
2019-03-05T19:58:10.230Z,5.80
2019-03-05T20:00:51.597Z,5.80
2019-03-05T20:03:20.856Z,5.80
2019-03-05T20:05:50.177Z,5.90
2019-03-05T20:08:20.357Z,5.90
2019-03-05T20:10:49.922Z,5.80
2019-03-05T20:13:19.472Z,5.80
2019-03-05T20:15:48.992Z,5.80
2019-03-05T20:18:18.564Z,5.80
2019-03-05T20:20:48.201Z,5.80
2019-03-05T20:23:17.785Z,5.80
2019-03-05T20:25:47.664Z,5.80
2019-03-05T20:28:18.312Z,5.80
2019-03-05T20:30:47.847Z,5.80
2019-03-05T20:33:17.420Z,5.80
2019-03-05T20:35:47.053Z,5.80
2019-03-05T20:38:16.614Z,5.80
2019-03-05T20:40:46.429Z,5.80
2019-03-05T20:43:16.359Z,5.80
2019-03-05T20:45:46.203Z,5.90
2019-03-05T20:48:16.270Z,5.90
2019-03-05T20:50:45.915Z,5.90
2019-03-05T20:53:15.394Z,5.90
2019-03-05T20:55:44.783Z,6.00
2019-03-05T20:58:14.692Z,6.00
2019-03-05T21:00:44.559Z,6.00
2019-03-05T21:03:14.092Z,6.00
2019-03-05T21:05:43.936Z,6.10
2019-03-05T21:08:13.958Z,6.10
2019-03-05T21:10:43.939Z,6.10
2019-03-05T21:13:13.622Z,6.10
2019-03-05T21:15:43.064Z,6.10
2019-03-05T21:18:14.418Z,6.10
2019-03-05T21:20:43.692Z,6.10
2019-03-05T21:23:12.872Z,6.10
2019-03-05T21:25:42.494Z,6.10
2019-03-05T21:28:11.747Z,6.10
2019-03-05T21:30:41.097Z,6.10
2019-03-05T21:33:10.282Z,6.10
2019-03-05T21:35:39.900Z,6.10
2019-03-05T21:38:09.262Z,6.00
2019-03-05T21:40:38.530Z,6.00
2019-03-05T21:43:07.647Z,6.00
2019-03-05T21:45:37.647Z,6.00
2019-03-05T21:48:06.881Z,6.00
2019-03-05T21:50:36.115Z,6.00
2019-03-05T21:53:05.436Z,6.00
2019-03-05T21:55:34.587Z,5.90
2019-03-05T21:58:03.860Z,5.90
2019-03-05T22:00:33.130Z,5.90
2019-03-05T22:03:02.296Z,5.90
2019-03-05T22:05:31.429Z,5.90
2019-03-05T22:08:00.626Z,5.90
2019-03-05T22:10:29.731Z,5.90
2019-03-05T22:12:58.831Z,5.90
2019-03-05T22:15:28.165Z,5.80
2019-03-05T22:17:57.300Z,5.80
2019-03-05T22:20:26.475Z,5.80
2019-03-05T22:22:55.612Z,5.80
2019-03-05T22:25:24.900Z,5.80
2019-03-05T22:27:54.148Z,5.80
2019-03-05T22:30:25.357Z,5.80
2019-03-05T22:32:54.451Z,5.80
2019-03-05T22:35:24.040Z,5.80
2019-03-05T22:37:53.187Z,5.80
2019-03-05T22:40:22.638Z,5.80
2019-03-05T22:42:51.851Z,5.90
2019-03-05T22:45:22.520Z,5.90
2019-03-05T22:47:51.737Z,5.90
2019-03-05T22:50:20.861Z,5.90
2019-03-05T22:52:50.008Z,5.90
2019-03-05T22:55:19.488Z,5.90
2019-03-05T22:57:48.653Z,5.90
2019-03-05T23:00:44.838Z,5.80
2019-03-05T23:03:14.504Z,5.90
2019-03-05T23:05:43.605Z,5.90
2019-03-05T23:08:12.787Z,5.90
2019-03-05T23:10:41.943Z,5.90
2019-03-05T23:13:11.064Z,5.90
2019-03-05T23:15:40.209Z,5.80
2019-03-05T23:18:09.341Z,5.80
2019-03-05T23:20:38.790Z,5.80
2019-03-05T23:23:07.911Z,5.80
2019-03-05T23:25:37.040Z,5.70
2019-03-05T23:28:06.677Z,5.70
2019-03-05T23:30:36.260Z,5.60
2019-03-05T23:33:05.381Z,5.60
2019-03-05T23:35:34.484Z,5.60
2019-03-05T23:38:03.632Z,5.50
2019-03-05T23:40:32.765Z,5.50
2019-03-05T23:43:01.989Z,5.50
2019-03-05T23:45:31.136Z,5.50
2019-03-05T23:48:00.316Z,5.50
2019-03-05T23:50:29.458Z,5.50
2019-03-05T23:52:59.070Z,5.50
2019-03-05T23:55:28.601Z,5.50
2019-03-05T23:57:57.698Z,5.50
